sensor_id;sensor_type;location;lat;lon;timestamp;P1;durP1;ratioP1;P2;durP2;ratioP2
7025;SDS011;3554;42.132;24.786;2022-09-09T00:02:24;8.87;;;8.37;;
7025;SDS011;3554;42.132;24.786;2022-09-09T00:04:58;10.97;;;9.83;;
7025;SDS011;3554;42.132;24.786;2022-09-09T00:07:31;10.27;;;9.57;;
7025;SDS011;3554;42.132;24.786;2022-09-09T00:10:09;11.47;;;9.17;;
7025;SDS011;3554;42.132;24.786;2022-09-09T00:12:47;10.77;;;9.77;;
7025;SDS011;3554;42.132;24.786;2022-09-09T00:15:22;10.60;;;9.60;;
7025;SDS011;3554;42.132;24.786;2022-09-09T00:17:53;10.20;;;9.33;;
7025;SDS011;3554;42.132;24.786;2022-09-09T00:20:29;10.60;;;9.67;;
7025;SDS011;3554;42.132;24.786;2022-09-09T00:23:04;10.70;;;9.90;;
7025;SDS011;3554;42.132;24.786;2022-09-09T00:25:41;10.70;;;9.77;;
7025;SDS011;3554;42.132;24.786;2022-09-09T00:28:13;9.73;;;8.97;;
7025;SDS011;3554;42.132;24.786;2022-09-09T00:30:46;9.67;;;8.93;;
7025;SDS011;3554;42.132;24.786;2022-09-09T00:33:14;9.93;;;9.13;;
7025;SDS011;3554;42.132;24.786;2022-09-09T00:35:44;10.70;;;9.70;;
7025;SDS011;3554;42.132;24.786;2022-09-09T00:38:14;9.33;;;8.73;;
7025;SDS011;3554;42.132;24.786;2022-09-09T00:40:45;10.20;;;9.23;;
7025;SDS011;3554;42.132;24.786;2022-09-09T00:43:26;9.60;;;8.90;;
7025;SDS011;3554;42.132;24.786;2022-09-09T00:46:00;10.13;;;9.13;;
7025;SDS011;3554;42.132;24.786;2022-09-09T00:48:41;11.97;;;10.57;;
7025;SDS011;3554;42.132;24.786;2022-09-09T00:51:19;10.10;;;8.73;;
7025;SDS011;3554;42.132;24.786;2022-09-09T00:53:58;11.10;;;10.07;;
7025;SDS011;3554;42.132;24.786;2022-09-09T00:56:42;10.50;;;9.63;;
7025;SDS011;3554;42.132;24.786;2022-09-09T00:59:22;11.10;;;10.17;;
7025;SDS011;3554;42.132;24.786;2022-09-09T01:01:54;10.70;;;9.80;;
7025;SDS011;3554;42.132;24.786;2022-09-09T01:04:23;11.10;;;10.10;;
7025;SDS011;3554;42.132;24.786;2022-09-09T01:06:57;11.80;;;10.13;;
7025;SDS011;3554;42.132;24.786;2022-09-09T01:09:38;11.00;;;10.10;;
7025;SDS011;3554;42.132;24.786;2022-09-09T01:12:23;11.97;;;10.03;;
7025;SDS011;3554;42.132;24.786;2022-09-09T01:14:53;11.90;;;10.10;;
7025;SDS011;3554;42.132;24.786;2022-09-09T01:17:28;10.97;;;10.07;;
7025;SDS011;3554;42.132;24.786;2022-09-09T01:20:03;14.63;;;11.33;;
7025;SDS011;3554;42.132;24.786;2022-09-09T01:22:36;11.33;;;10.33;;
7025;SDS011;3554;42.132;24.786;2022-09-09T01:25:13;11.13;;;10.10;;
7025;SDS011;3554;42.132;24.786;2022-09-09T01:27:50;10.47;;;9.50;;
7025;SDS011;3554;42.132;24.786;2022-09-09T01:30:20;11.10;;;10.20;;
7025;SDS011;3554;42.132;24.786;2022-09-09T01:32:49;12.40;;;10.53;;
7025;SDS011;3554;42.132;24.786;2022-09-09T01:35:29;12.00;;;11.07;;
7025;SDS011;3554;42.132;24.786;2022-09-09T01:38:06;10.50;;;9.57;;
7025;SDS011;3554;42.132;24.786;2022-09-09T01:40:33;10.77;;;9.90;;
7025;SDS011;3554;42.132;24.786;2022-09-09T01:43:02;11.50;;;10.57;;
7025;SDS011;3554;42.132;24.786;2022-09-09T01:45:29;11.30;;;10.23;;
7025;SDS011;3554;42.132;24.786;2022-09-09T01:47:57;11.37;;;10.20;;
7025;SDS011;3554;42.132;24.786;2022-09-09T01:50:24;10.73;;;10.00;;
7025;SDS011;3554;42.132;24.786;2022-09-09T01:52:52;11.87;;;11.00;;
7025;SDS011;3554;42.132;24.786;2022-09-09T01:55:23;11.90;;;10.93;;
7025;SDS011;3554;42.132;24.786;2022-09-09T01:57:57;12.20;;;11.07;;
7025;SDS011;3554;42.132;24.786;2022-09-09T02:00:36;10.63;;;9.93;;
7025;SDS011;3554;42.132;24.786;2022-09-09T02:03:10;11.33;;;10.43;;
7025;SDS011;3554;42.132;24.786;2022-09-09T02:05:45;12.00;;;11.00;;
7025;SDS011;3554;42.132;24.786;2022-09-09T02:08:20;12.27;;;11.17;;
7025;SDS011;3554;42.132;24.786;2022-09-09T02:10:53;11.60;;;10.63;;
7025;SDS011;3554;42.132;24.786;2022-09-09T02:13:27;13.00;;;11.93;;
7025;SDS011;3554;42.132;24.786;2022-09-09T02:15:56;14.50;;;12.93;;
7025;SDS011;3554;42.132;24.786;2022-09-09T02:18:27;14.23;;;12.97;;
7025;SDS011;3554;42.132;24.786;2022-09-09T02:20:59;14.13;;;12.67;;
7025;SDS011;3554;42.132;24.786;2022-09-09T02:23:28;14.30;;;13.07;;
7025;SDS011;3554;42.132;24.786;2022-09-09T02:25:57;17.80;;;13.97;;
7025;SDS011;3554;42.132;24.786;2022-09-09T02:28:27;15.93;;;14.13;;
7025;SDS011;3554;42.132;24.786;2022-09-09T02:30:56;13.63;;;12.57;;
7025;SDS011;3554;42.132;24.786;2022-09-09T02:33:24;15.03;;;13.23;;
7025;SDS011;3554;42.132;24.786;2022-09-09T02:35:54;13.37;;;12.23;;
7025;SDS011;3554;42.132;24.786;2022-09-09T02:38:27;13.67;;;12.37;;
7025;SDS011;3554;42.132;24.786;2022-09-09T02:40:57;20.60;;;13.77;;
7025;SDS011;3554;42.132;24.786;2022-09-09T02:43:24;20.10;;;14.20;;
7025;SDS011;3554;42.132;24.786;2022-09-09T02:45:53;17.37;;;13.33;;
7025;SDS011;3554;42.132;24.786;2022-09-09T02:48:26;15.27;;;13.77;;
7025;SDS011;3554;42.132;24.786;2022-09-09T02:51:00;18.80;;;14.60;;
7025;SDS011;3554;42.132;24.786;2022-09-09T02:53:34;20.87;;;14.97;;
7025;SDS011;3554;42.132;24.786;2022-09-09T02:56:12;15.17;;;13.87;;
7025;SDS011;3554;42.132;24.786;2022-09-09T02:58:41;15.70;;;14.27;;
7025;SDS011;3554;42.132;24.786;2022-09-09T03:01:10;17.17;;;15.00;;
7025;SDS011;3554;42.132;24.786;2022-09-09T03:03:37;16.20;;;14.50;;
7025;SDS011;3554;42.132;24.786;2022-09-09T03:06:06;15.43;;;14.10;;
7025;SDS011;3554;42.132;24.786;2022-09-09T03:08:33;18.33;;;14.97;;
7025;SDS011;3554;42.132;24.786;2022-09-09T03:11:00;24.03;;;15.40;;
7025;SDS011;3554;42.132;24.786;2022-09-09T03:13:27;15.87;;;11.50;;
7025;SDS011;3554;42.132;24.786;2022-09-09T03:15:54;10.10;;;9.10;;
7025;SDS011;3554;42.132;24.786;2022-09-09T03:18:22;16.80;;;13.30;;
7025;SDS011;3554;42.132;24.786;2022-09-09T03:20:50;15.77;;;13.10;;
7025;SDS011;3554;42.132;24.786;2022-09-09T03:23:19;22.67;;;17.50;;
7025;SDS011;3554;42.132;24.786;2022-09-09T03:25:47;21.03;;;15.20;;
7025;SDS011;3554;42.132;24.786;2022-09-09T03:28:14;27.87;;;14.60;;
7025;SDS011;3554;42.132;24.786;2022-09-09T03:30:41;22.83;;;14.20;;
7025;SDS011;3554;42.132;24.786;2022-09-09T03:33:08;23.53;;;14.43;;
7025;SDS011;3554;42.132;24.786;2022-09-09T03:35:36;19.80;;;14.07;;
7025;SDS011;3554;42.132;24.786;2022-09-09T03:38:02;24.17;;;14.37;;
7025;SDS011;3554;42.132;24.786;2022-09-09T03:40:29;16.50;;;14.93;;
7025;SDS011;3554;42.132;24.786;2022-09-09T03:42:57;21.63;;;14.23;;
7025;SDS011;3554;42.132;24.786;2022-09-09T03:45:24;16.60;;;13.47;;
7025;SDS011;3554;42.132;24.786;2022-09-09T03:47:51;16.70;;;14.97;;
7025;SDS011;3554;42.132;24.786;2022-09-09T03:50:18;22.27;;;14.20;;
7025;SDS011;3554;42.132;24.786;2022-09-09T03:52:46;15.03;;;13.73;;
7025;SDS011;3554;42.132;24.786;2022-09-09T03:55:13;18.17;;;13.83;;
7025;SDS011;3554;42.132;24.786;2022-09-09T03:57:40;15.40;;;13.83;;
7025;SDS011;3554;42.132;24.786;2022-09-09T04:00:07;16.40;;;14.67;;
7025;SDS011;3554;42.132;24.786;2022-09-09T04:02:35;16.83;;;13.57;;
7025;SDS011;3554;42.132;24.786;2022-09-09T04:05:02;16.47;;;14.60;;
7025;SDS011;3554;42.132;24.786;2022-09-09T04:07:29;14.70;;;13.33;;
7025;SDS011;3554;42.132;24.786;2022-09-09T04:09:58;23.27;;;14.73;;
7025;SDS011;3554;42.132;24.786;2022-09-09T04:12:25;21.93;;;14.57;;
7025;SDS011;3554;42.132;24.786;2022-09-09T04:14:52;25.93;;;15.10;;
7025;SDS011;3554;42.132;24.786;2022-09-09T04:17:19;18.83;;;12.83;;
7025;SDS011;3554;42.132;24.786;2022-09-09T04:19:46;14.90;;;12.27;;
7025;SDS011;3554;42.132;24.786;2022-09-09T04:22:12;14.23;;;11.07;;
7025;SDS011;3554;42.132;24.786;2022-09-09T04:24:39;12.97;;;11.27;;
7025;SDS011;3554;42.132;24.786;2022-09-09T04:27:07;25.37;;;11.07;;
7025;SDS011;3554;42.132;24.786;2022-09-09T04:29:34;16.30;;;10.53;;
7025;SDS011;3554;42.132;24.786;2022-09-09T04:32:01;12.60;;;10.00;;
7025;SDS011;3554;42.132;24.786;2022-09-09T04:34:28;17.47;;;11.03;;
7025;SDS011;3554;42.132;24.786;2022-09-09T04:36:55;15.37;;;10.63;;
7025;SDS011;3554;42.132;24.786;2022-09-09T04:39:22;18.27;;;10.63;;
7025;SDS011;3554;42.132;24.786;2022-09-09T04:41:49;17.90;;;11.07;;
7025;SDS011;3554;42.132;24.786;2022-09-09T04:44:17;14.40;;;10.17;;
7025;SDS011;3554;42.132;24.786;2022-09-09T04:46:44;22.07;;;10.27;;
7025;SDS011;3554;42.132;24.786;2022-09-09T04:49:11;23.43;;;10.93;;
7025;SDS011;3554;42.132;24.786;2022-09-09T04:51:37;19.60;;;9.77;;
7025;SDS011;3554;42.132;24.786;2022-09-09T04:54:04;18.47;;;10.13;;
7025;SDS011;3554;42.132;24.786;2022-09-09T04:56:32;10.97;;;9.43;;
7025;SDS011;3554;42.132;24.786;2022-09-09T04:58:59;10.43;;;9.33;;
7025;SDS011;3554;42.132;24.786;2022-09-09T05:01:29;16.83;;;9.20;;
7025;SDS011;3554;42.132;24.786;2022-09-09T05:03:57;7.87;;;7.07;;
7025;SDS011;3554;42.132;24.786;2022-09-09T05:06:24;8.57;;;6.90;;
7025;SDS011;3554;42.132;24.786;2022-09-09T05:08:50;9.97;;;6.90;;
7025;SDS011;3554;42.132;24.786;2022-09-09T05:11:18;12.47;;;8.60;;
7025;SDS011;3554;42.132;24.786;2022-09-09T05:13:48;20.20;;;14.23;;
7025;SDS011;3554;42.132;24.786;2022-09-09T05:16:16;10.83;;;9.40;;
7025;SDS011;3554;42.132;24.786;2022-09-09T05:18:45;75.10;;;14.87;;
7025;SDS011;3554;42.132;24.786;2022-09-09T05:21:13;11.50;;;10.13;;
7025;SDS011;3554;42.132;24.786;2022-09-09T05:23:41;17.70;;;12.83;;
7025;SDS011;3554;42.132;24.786;2022-09-09T05:26:09;11.53;;;10.57;;
7025;SDS011;3554;42.132;24.786;2022-09-09T05:28:39;11.30;;;9.50;;
7025;SDS011;3554;42.132;24.786;2022-09-09T05:31:07;11.87;;;10.73;;
7025;SDS011;3554;42.132;24.786;2022-09-09T05:33:37;28.57;;;10.97;;
7025;SDS011;3554;42.132;24.786;2022-09-09T05:36:08;12.00;;;10.90;;
7025;SDS011;3554;42.132;24.786;2022-09-09T05:38:38;27.73;;;11.63;;
7025;SDS011;3554;42.132;24.786;2022-09-09T05:41:05;14.37;;;11.50;;
7025;SDS011;3554;42.132;24.786;2022-09-09T05:43:34;18.53;;;10.83;;
7025;SDS011;3554;42.132;24.786;2022-09-09T05:46:03;21.20;;;10.97;;
7025;SDS011;3554;42.132;24.786;2022-09-09T05:48:30;14.90;;;8.93;;
7025;SDS011;3554;42.132;24.786;2022-09-09T05:50:59;15.77;;;8.40;;
7025;SDS011;3554;42.132;24.786;2022-09-09T05:53:29;9.43;;;7.97;;
7025;SDS011;3554;42.132;24.786;2022-09-09T05:55:59;8.60;;;7.80;;
7025;SDS011;3554;42.132;24.786;2022-09-09T05:58:28;8.43;;;7.70;;
7025;SDS011;3554;42.132;24.786;2022-09-09T06:01:00;10.83;;;8.03;;
7025;SDS011;3554;42.132;24.786;2022-09-09T06:03:27;8.47;;;7.67;;
7025;SDS011;3554;42.132;24.786;2022-09-09T06:05:58;7.83;;;7.23;;
7025;SDS011;3554;42.132;24.786;2022-09-09T06:08:25;7.47;;;6.97;;
7025;SDS011;3554;42.132;24.786;2022-09-09T06:10:53;10.10;;;7.20;;
7025;SDS011;3554;42.132;24.786;2022-09-09T06:13:29;6.93;;;6.20;;
7025;SDS011;3554;42.132;24.786;2022-09-09T06:15:56;7.43;;;6.80;;
7025;SDS011;3554;42.132;24.786;2022-09-09T06:18:23;13.30;;;8.23;;
7025;SDS011;3554;42.132;24.786;2022-09-09T06:20:54;13.70;;;6.97;;
7025;SDS011;3554;42.132;24.786;2022-09-09T06:23:22;7.50;;;6.70;;
7025;SDS011;3554;42.132;24.786;2022-09-09T06:25:49;6.73;;;6.33;;
7025;SDS011;3554;42.132;24.786;2022-09-09T06:28:18;8.87;;;6.10;;
7025;SDS011;3554;42.132;24.786;2022-09-09T06:30:45;6.83;;;6.33;;
7025;SDS011;3554;42.132;24.786;2022-09-09T06:33:12;74.30;;;9.93;;
7025;SDS011;3554;42.132;24.786;2022-09-09T06:35:39;55.13;;;8.83;;
7025;SDS011;3554;42.132;24.786;2022-09-09T06:38:05;6.70;;;6.10;;
7025;SDS011;3554;42.132;24.786;2022-09-09T06:40:33;6.97;;;6.43;;
7025;SDS011;3554;42.132;24.786;2022-09-09T06:43:00;9.00;;;7.07;;
7025;SDS011;3554;42.132;24.786;2022-09-09T06:45:28;7.27;;;6.57;;
7025;SDS011;3554;42.132;24.786;2022-09-09T06:47:56;6.67;;;6.17;;
7025;SDS011;3554;42.132;24.786;2022-09-09T06:50:23;9.20;;;7.07;;
7025;SDS011;3554;42.132;24.786;2022-09-09T06:52:49;8.57;;;6.27;;
7025;SDS011;3554;42.132;24.786;2022-09-09T06:55:16;6.90;;;6.23;;
7025;SDS011;3554;42.132;24.786;2022-09-09T06:57:43;7.90;;;7.30;;
7025;SDS011;3554;42.132;24.786;2022-09-09T07:00:11;8.60;;;7.90;;
7025;SDS011;3554;42.132;24.786;2022-09-09T07:02:40;7.07;;;6.47;;
7025;SDS011;3554;42.132;24.786;2022-09-09T07:05:07;7.30;;;6.57;;
7025;SDS011;3554;42.132;24.786;2022-09-09T07:07:34;9.80;;;6.20;;
7025;SDS011;3554;42.132;24.786;2022-09-09T07:10:02;9.90;;;6.40;;
7025;SDS011;3554;42.132;24.786;2022-09-09T07:12:29;6.97;;;6.37;;
7025;SDS011;3554;42.132;24.786;2022-09-09T07:14:56;8.37;;;6.80;;
7025;SDS011;3554;42.132;24.786;2022-09-09T07:17:23;12.27;;;6.03;;
7025;SDS011;3554;42.132;24.786;2022-09-09T07:19:51;6.80;;;6.30;;
7025;SDS011;3554;42.132;24.786;2022-09-09T07:22:18;8.70;;;6.50;;
7025;SDS011;3554;42.132;24.786;2022-09-09T07:24:45;11.20;;;7.17;;
7025;SDS011;3554;42.132;24.786;2022-09-09T07:27:12;8.63;;;6.33;;
7025;SDS011;3554;42.132;24.786;2022-09-09T07:29:38;9.37;;;6.30;;
7025;SDS011;3554;42.132;24.786;2022-09-09T07:32:05;7.13;;;6.00;;
7025;SDS011;3554;42.132;24.786;2022-09-09T07:34:32;6.93;;;6.13;;
7025;SDS011;3554;42.132;24.786;2022-09-09T07:37:00;7.37;;;5.67;;
7025;SDS011;3554;42.132;24.786;2022-09-09T07:39:27;6.30;;;5.70;;
7025;SDS011;3554;42.132;24.786;2022-09-09T07:41:55;6.30;;;5.97;;
7025;SDS011;3554;42.132;24.786;2022-09-09T07:44:23;6.60;;;5.93;;
7025;SDS011;3554;42.132;24.786;2022-09-09T07:46:51;7.23;;;6.60;;
7025;SDS011;3554;42.132;24.786;2022-09-09T07:49:18;6.97;;;6.33;;
7025;SDS011;3554;42.132;24.786;2022-09-09T07:51:46;8.47;;;6.27;;
7025;SDS011;3554;42.132;24.786;2022-09-09T07:54:16;6.00;;;5.23;;
7025;SDS011;3554;42.132;24.786;2022-09-09T07:56:45;9.80;;;6.13;;
7025;SDS011;3554;42.132;24.786;2022-09-09T07:59:13;6.03;;;5.33;;
7025;SDS011;3554;42.132;24.786;2022-09-09T08:01:40;6.30;;;5.57;;
7025;SDS011;3554;42.132;24.786;2022-09-09T08:04:09;5.27;;;5.00;;
7025;SDS011;3554;42.132;24.786;2022-09-09T08:06:40;5.70;;;5.20;;
7025;SDS011;3554;42.132;24.786;2022-09-09T08:09:08;5.90;;;5.40;;
7025;SDS011;3554;42.132;24.786;2022-09-09T08:11:37;6.17;;;5.67;;
7025;SDS011;3554;42.132;24.786;2022-09-09T08:14:05;6.63;;;5.93;;
7025;SDS011;3554;42.132;24.786;2022-09-09T08:16:34;9.07;;;8.37;;
7025;SDS011;3554;42.132;24.786;2022-09-09T08:19:03;8.13;;;7.17;;
7025;SDS011;3554;42.132;24.786;2022-09-09T08:21:32;45.13;;;10.20;;
7025;SDS011;3554;42.132;24.786;2022-09-09T08:24:01;7.10;;;6.60;;
7025;SDS011;3554;42.132;24.786;2022-09-09T08:26:30;7.03;;;6.30;;
7025;SDS011;3554;42.132;24.786;2022-09-09T08:29:01;6.67;;;6.23;;
7025;SDS011;3554;42.132;24.786;2022-09-09T08:31:30;8.30;;;5.77;;
7025;SDS011;3554;42.132;24.786;2022-09-09T08:33:58;6.57;;;6.17;;
7025;SDS011;3554;42.132;24.786;2022-09-09T08:36:27;7.17;;;6.73;;
7025;SDS011;3554;42.132;24.786;2022-09-09T08:38:56;7.60;;;6.20;;
7025;SDS011;3554;42.132;24.786;2022-09-09T08:41:32;7.87;;;6.57;;
7025;SDS011;3554;42.132;24.786;2022-09-09T08:44:09;6.57;;;6.10;;
7025;SDS011;3554;42.132;24.786;2022-09-09T08:46:43;6.53;;;6.03;;
7025;SDS011;3554;42.132;24.786;2022-09-09T08:49:24;6.97;;;6.37;;
7025;SDS011;3554;42.132;24.786;2022-09-09T08:52:06;6.43;;;5.93;;
7025;SDS011;3554;42.132;24.786;2022-09-09T08:54:41;7.57;;;5.63;;
7025;SDS011;3554;42.132;24.786;2022-09-09T08:57:09;6.73;;;6.20;;
7025;SDS011;3554;42.132;24.786;2022-09-09T08:59:41;6.83;;;6.30;;
7025;SDS011;3554;42.132;24.786;2022-09-09T09:02:09;8.27;;;6.40;;
7025;SDS011;3554;42.132;24.786;2022-09-09T09:04:49;6.57;;;5.50;;
7025;SDS011;3554;42.132;24.786;2022-09-09T09:07:26;7.03;;;6.53;;
7025;SDS011;3554;42.132;24.786;2022-09-09T09:10:02;9.60;;;6.47;;
7025;SDS011;3554;42.132;24.786;2022-09-09T09:12:37;7.17;;;6.67;;
7025;SDS011;3554;42.132;24.786;2022-09-09T09:15:14;7.53;;;6.73;;
7025;SDS011;3554;42.132;24.786;2022-09-09T09:17:44;6.63;;;5.80;;
7025;SDS011;3554;42.132;24.786;2022-09-09T09:20:12;7.47;;;7.07;;
7025;SDS011;3554;42.132;24.786;2022-09-09T09:22:43;7.10;;;6.23;;
7025;SDS011;3554;42.132;24.786;2022-09-09T09:25:16;7.33;;;6.90;;
7025;SDS011;3554;42.132;24.786;2022-09-09T09:27:46;11.60;;;10.73;;
7025;SDS011;3554;42.132;24.786;2022-09-09T09:30:23;7.83;;;7.33;;
7025;SDS011;3554;42.132;24.786;2022-09-09T09:32:53;6.47;;;6.03;;
7025;SDS011;3554;42.132;24.786;2022-09-09T09:35:22;6.50;;;6.00;;
7025;SDS011;3554;42.132;24.786;2022-09-09T09:37:49;12.43;;;7.13;;
7025;SDS011;3554;42.132;24.786;2022-09-09T09:40:17;8.87;;;6.70;;
7025;SDS011;3554;42.132;24.786;2022-09-09T09:42:48;7.70;;;7.10;;
7025;SDS011;3554;42.132;24.786;2022-09-09T09:45:20;7.87;;;7.17;;
7025;SDS011;3554;42.132;24.786;2022-09-09T09:47:59;8.27;;;7.50;;
7025;SDS011;3554;42.132;24.786;2022-09-09T09:50:28;7.87;;;7.30;;
7025;SDS011;3554;42.132;24.786;2022-09-09T09:52:57;8.37;;;7.77;;
7025;SDS011;3554;42.132;24.786;2022-09-09T09:55:26;9.00;;;7.10;;
7025;SDS011;3554;42.132;24.786;2022-09-09T09:58:00;8.37;;;7.50;;
7025;SDS011;3554;42.132;24.786;2022-09-09T10:00:29;7.87;;;7.37;;
7025;SDS011;3554;42.132;24.786;2022-09-09T10:02:57;8.43;;;7.60;;
7025;SDS011;3554;42.132;24.786;2022-09-09T10:05:27;8.00;;;7.30;;
7025;SDS011;3554;42.132;24.786;2022-09-09T10:08:00;12.10;;;6.80;;
7025;SDS011;3554;42.132;24.786;2022-09-09T10:10:37;7.73;;;7.23;;
7025;SDS011;3554;42.132;24.786;2022-09-09T10:13:24;8.47;;;7.97;;
7025;SDS011;3554;42.132;24.786;2022-09-09T10:16:01;8.83;;;7.67;;
7025;SDS011;3554;42.132;24.786;2022-09-09T10:18:46;7.63;;;7.03;;
7025;SDS011;3554;42.132;24.786;2022-09-09T10:21:25;8.20;;;7.53;;
7025;SDS011;3554;42.132;24.786;2022-09-09T10:24:08;9.07;;;8.17;;
7025;SDS011;3554;42.132;24.786;2022-09-09T10:26:57;8.77;;;8.13;;
7025;SDS011;3554;42.132;24.786;2022-09-09T10:29:36;8.23;;;7.73;;
7025;SDS011;3554;42.132;24.786;2022-09-09T10:32:24;7.57;;;6.87;;
7025;SDS011;3554;42.132;24.786;2022-09-09T10:35:12;7.80;;;7.23;;
7025;SDS011;3554;42.132;24.786;2022-09-09T10:37:53;7.63;;;7.07;;
7025;SDS011;3554;42.132;24.786;2022-09-09T10:40:31;7.57;;;6.90;;
7025;SDS011;3554;42.132;24.786;2022-09-09T10:43:07;7.50;;;6.77;;
7025;SDS011;3554;42.132;24.786;2022-09-09T10:45:46;7.00;;;6.50;;
7025;SDS011;3554;42.132;24.786;2022-09-09T10:48:25;7.47;;;6.93;;
7025;SDS011;3554;42.132;24.786;2022-09-09T10:51:02;7.53;;;6.77;;
7025;SDS011;3554;42.132;24.786;2022-09-09T10:53:50;6.37;;;6.07;;
7025;SDS011;3554;42.132;24.786;2022-09-09T10:56:28;6.73;;;6.20;;
7025;SDS011;3554;42.132;24.786;2022-09-09T10:58:58;6.70;;;6.30;;
7025;SDS011;3554;42.132;24.786;2022-09-09T11:01:30;6.57;;;5.97;;
7025;SDS011;3554;42.132;24.786;2022-09-09T11:04:05;7.00;;;6.53;;
7025;SDS011;3554;42.132;24.786;2022-09-09T11:06:41;6.77;;;6.17;;
7025;SDS011;3554;42.132;24.786;2022-09-09T11:09:13;6.60;;;6.10;;
7025;SDS011;3554;42.132;24.786;2022-09-09T11:11:52;5.80;;;5.40;;
7025;SDS011;3554;42.132;24.786;2022-09-09T11:14:28;6.47;;;5.83;;
7025;SDS011;3554;42.132;24.786;2022-09-09T11:16:59;6.70;;;6.20;;
7025;SDS011;3554;42.132;24.786;2022-09-09T11:19:30;6.10;;;5.80;;
7025;SDS011;3554;42.132;24.786;2022-09-09T11:22:00;5.60;;;5.20;;
7025;SDS011;3554;42.132;24.786;2022-09-09T11:24:31;6.20;;;5.70;;
7025;SDS011;3554;42.132;24.786;2022-09-09T11:27:07;5.53;;;5.03;;
7025;SDS011;3554;42.132;24.786;2022-09-09T11:30:00;7.40;;;4.97;;
7025;SDS011;3554;42.132;24.786;2022-09-09T11:35:44;6.27;;;5.73;;
7025;SDS011;3554;42.132;24.786;2022-09-09T11:38:21;5.73;;;5.30;;
7025;SDS011;3554;42.132;24.786;2022-09-09T11:40:56;5.60;;;5.23;;
7025;SDS011;3554;42.132;24.786;2022-09-09T11:43:27;5.67;;;5.37;;
7025;SDS011;3554;42.132;24.786;2022-09-09T11:45:58;5.97;;;5.50;;
7025;SDS011;3554;42.132;24.786;2022-09-09T11:48:32;6.73;;;6.30;;
7025;SDS011;3554;42.132;24.786;2022-09-09T11:51:04;5.20;;;4.90;;
7025;SDS011;3554;42.132;24.786;2022-09-09T11:53:33;5.30;;;5.00;;
7025;SDS011;3554;42.132;24.786;2022-09-09T11:58:41;5.43;;;5.13;;
7025;SDS011;3554;42.132;24.786;2022-09-09T12:01:13;10.10;;;4.80;;
7025;SDS011;3554;42.132;24.786;2022-09-09T12:03:43;5.40;;;4.90;;
7025;SDS011;3554;42.132;24.786;2022-09-09T12:06:15;5.63;;;5.13;;
7025;SDS011;3554;42.132;24.786;2022-09-09T12:08:46;5.13;;;4.73;;
7025;SDS011;3554;42.132;24.786;2022-09-09T12:11:23;4.70;;;4.40;;
7025;SDS011;3554;42.132;24.786;2022-09-09T12:13:52;5.20;;;4.90;;
7025;SDS011;3554;42.132;24.786;2022-09-09T12:16:27;5.80;;;5.20;;
7025;SDS011;3554;42.132;24.786;2022-09-09T12:19:12;8.53;;;5.13;;
7025;SDS011;3554;42.132;24.786;2022-09-09T12:21:44;6.33;;;5.93;;
7025;SDS011;3554;42.132;24.786;2022-09-09T12:24:18;5.97;;;5.53;;
7025;SDS011;3554;42.132;24.786;2022-09-09T12:26:52;6.50;;;5.87;;
7025;SDS011;3554;42.132;24.786;2022-09-09T12:29:27;7.33;;;6.20;;
7025;SDS011;3554;42.132;24.786;2022-09-09T12:32:00;6.23;;;5.63;;
7025;SDS011;3554;42.132;24.786;2022-09-09T12:34:34;6.20;;;5.80;;
7025;SDS011;3554;42.132;24.786;2022-09-09T12:39:55;6.83;;;6.23;;
7025;SDS011;3554;42.132;24.786;2022-09-09T12:42:24;6.80;;;6.40;;
7025;SDS011;3554;42.132;24.786;2022-09-09T12:44:53;36.27;;;8.37;;
7025;SDS011;3554;42.132;24.786;2022-09-09T12:47:21;16.57;;;6.30;;
7025;SDS011;3554;42.132;24.786;2022-09-09T12:49:53;5.67;;;5.20;;
7025;SDS011;3554;42.132;24.786;2022-09-09T12:52:23;6.80;;;5.13;;
7025;SDS011;3554;42.132;24.786;2022-09-09T12:54:55;6.13;;;5.53;;
7025;SDS011;3554;42.132;24.786;2022-09-09T12:57:23;5.73;;;5.43;;
7025;SDS011;3554;42.132;24.786;2022-09-09T12:59:52;22.47;;;16.03;;
7025;SDS011;3554;42.132;24.786;2022-09-09T13:02:30;5.73;;;5.43;;
7025;SDS011;3554;42.132;24.786;2022-09-09T13:05:05;6.23;;;5.57;;
7025;SDS011;3554;42.132;24.786;2022-09-09T13:07:34;6.50;;;6.10;;
7025;SDS011;3554;42.132;24.786;2022-09-09T13:10:01;7.93;;;7.43;;
7025;SDS011;3554;42.132;24.786;2022-09-09T13:12:28;6.03;;;5.63;;
7025;SDS011;3554;42.132;24.786;2022-09-09T13:14:55;6.00;;;5.57;;
7025;SDS011;3554;42.132;24.786;2022-09-09T13:17:23;6.10;;;5.60;;
7025;SDS011;3554;42.132;24.786;2022-09-09T13:19:54;9.40;;;5.70;;
7025;SDS011;3554;42.132;24.786;2022-09-09T13:22:22;6.63;;;6.03;;
7025;SDS011;3554;42.132;24.786;2022-09-09T13:25:00;9.30;;;5.87;;
7025;SDS011;3554;42.132;24.786;2022-09-09T13:27:30;6.20;;;5.80;;
7025;SDS011;3554;42.132;24.786;2022-09-09T13:29:59;8.40;;;7.73;;
7025;SDS011;3554;42.132;24.786;2022-09-09T13:32:27;7.53;;;7.03;;
7025;SDS011;3554;42.132;24.786;2022-09-09T13:34:57;7.10;;;6.53;;
7025;SDS011;3554;42.132;24.786;2022-09-09T13:37:26;6.30;;;5.90;;
7025;SDS011;3554;42.132;24.786;2022-09-09T13:40:00;6.43;;;5.97;;
7025;SDS011;3554;42.132;24.786;2022-09-09T13:42:30;11.97;;;5.77;;
7025;SDS011;3554;42.132;24.786;2022-09-09T13:45:00;6.93;;;5.97;;
7025;SDS011;3554;42.132;24.786;2022-09-09T13:47:30;13.57;;;7.27;;
7025;SDS011;3554;42.132;24.786;2022-09-09T13:49:58;6.47;;;6.07;;
7025;SDS011;3554;42.132;24.786;2022-09-09T13:52:44;6.70;;;6.20;;
7025;SDS011;3554;42.132;24.786;2022-09-09T13:55:12;6.27;;;5.87;;
7025;SDS011;3554;42.132;24.786;2022-09-09T13:57:39;11.13;;;6.07;;
7025;SDS011;3554;42.132;24.786;2022-09-09T14:00:16;7.37;;;6.87;;
7025;SDS011;3554;42.132;24.786;2022-09-09T14:02:42;6.60;;;6.10;;
7025;SDS011;3554;42.132;24.786;2022-09-09T14:05:10;6.20;;;5.90;;
7025;SDS011;3554;42.132;24.786;2022-09-09T14:07:37;6.17;;;5.70;;
7025;SDS011;3554;42.132;24.786;2022-09-09T14:10:07;7.83;;;7.10;;
7025;SDS011;3554;42.132;24.786;2022-09-09T14:12:35;8.00;;;6.67;;
7025;SDS011;3554;42.132;24.786;2022-09-09T14:15:02;7.07;;;6.47;;
7025;SDS011;3554;42.132;24.786;2022-09-09T14:17:30;8.00;;;7.20;;
7025;SDS011;3554;42.132;24.786;2022-09-09T14:19:57;7.57;;;6.13;;
7025;SDS011;3554;42.132;24.786;2022-09-09T14:22:24;8.73;;;7.30;;
7025;SDS011;3554;42.132;24.786;2022-09-09T14:24:51;7.47;;;6.80;;
7025;SDS011;3554;42.132;24.786;2022-09-09T14:27:18;7.13;;;6.57;;
7025;SDS011;3554;42.132;24.786;2022-09-09T14:29:46;8.17;;;7.23;;
7025;SDS011;3554;42.132;24.786;2022-09-09T14:32:13;16.10;;;8.00;;
7025;SDS011;3554;42.132;24.786;2022-09-09T14:34:40;7.27;;;6.40;;
7025;SDS011;3554;42.132;24.786;2022-09-09T14:37:06;7.97;;;6.80;;
7025;SDS011;3554;42.132;24.786;2022-09-09T14:39:33;8.23;;;7.13;;
7025;SDS011;3554;42.132;24.786;2022-09-09T14:42:00;8.17;;;7.50;;
7025;SDS011;3554;42.132;24.786;2022-09-09T14:44:28;8.93;;;8.07;;
7025;SDS011;3554;42.132;24.786;2022-09-09T14:46:56;11.43;;;7.20;;
7025;SDS011;3554;42.132;24.786;2022-09-09T14:49:23;12.47;;;7.43;;
7025;SDS011;3554;42.132;24.786;2022-09-09T14:51:50;8.10;;;7.40;;
7025;SDS011;3554;42.132;24.786;2022-09-09T14:54:17;11.97;;;7.83;;
7025;SDS011;3554;42.132;24.786;2022-09-09T14:56:43;14.83;;;7.47;;
7025;SDS011;3554;42.132;24.786;2022-09-09T14:59:10;7.27;;;6.77;;
7025;SDS011;3554;42.132;24.786;2022-09-09T15:01:38;11.20;;;7.43;;
7025;SDS011;3554;42.132;24.786;2022-09-09T15:04:06;8.23;;;7.20;;
7025;SDS011;3554;42.132;24.786;2022-09-09T15:06:34;11.60;;;7.53;;
7025;SDS011;3554;42.132;24.786;2022-09-09T15:09:04;7.50;;;6.80;;
7025;SDS011;3554;42.132;24.786;2022-09-09T15:11:33;8.90;;;7.30;;
7025;SDS011;3554;42.132;24.786;2022-09-09T15:14:02;13.77;;;7.67;;
7025;SDS011;3554;42.132;24.786;2022-09-09T15:16:30;9.63;;;6.83;;
7025;SDS011;3554;42.132;24.786;2022-09-09T15:18:58;9.37;;;7.73;;
7025;SDS011;3554;42.132;24.786;2022-09-09T15:21:28;8.17;;;7.50;;